Time;durP1;ratioP1;P1;durP2;ratioP2;P2;SDS_P1;SDS_P2;PMS_P1;PMS_P2;Temp;Humidity;BMP_temperature;BMP_pressure;BME280_temperature;BME280_humidity;BME280_pressure;Samples;Min_cycle;Max_cycle;Signal;HPM_P1;HPM_P2
2023/04/03 05:33:26;;;;;;;29.30;15.70;;;;;;;-0.46;85.52;99137.15;102658;1288;648521;-67
2023/04/03 05:35:54;;;;;;;82.30;26.30;;;;;;;-0.59;84.90;99143.00;103936;1272;305550;-67
2023/04/03 05:38:22;;;;;;;38.20;12.70;;;;;;;-0.66;85.38;99144.05;104236;1271;94481;-68
2023/04/03 05:40:49;;;;;;;42.90;13.60;;;;;;;-0.75;85.45;99148.75;104035;1269;94359;-67
2023/04/03 05:43:16;;;;;;;32.40;11.70;;;;;;;-0.78;85.81;99149.38;104284;1269;95176;-67
2023/04/03 05:45:44;;;;;;;41.70;14.10;;;;;;;-0.84;85.45;99148.43;104098;1272;94332;-68
2023/04/03 05:48:12;;;;;;;52.90;17.20;;;;;;;-0.87;85.75;99148.88;104188;1269;94180;-70
2023/04/03 05:50:41;;;;;;;25.90;9.70;;;;;;;-0.90;85.95;99151.31;104223;1269;94268;-68
2023/04/03 05:53:18;;;;;;;30.80;10.40;;;;;;;-0.97;85.74;99154.99;104032;1271;108126;-67
2023/04/03 05:55:45;;;;;;;38.60;12.30;;;;;;;-1.04;85.88;99161.11;104015;1272;99189;-68
2023/04/03 05:58:12;;;;;;;32.00;10.90;;;;;;;-1.03;86.05;99160.31;104100;1272;95336;-66
2023/04/03 06:00:39;;;;;;;45.70;15.00;;;;;;;-0.97;86.29;99161.20;104120;1282;95201;-65
2023/04/03 06:03:07;;;;;;;18.00;7.10;;;;;;;-0.96;85.75;99164.66;104155;1270;95195;-65
2023/04/03 06:05:34;;;;;;;35.50;12.50;;;;;;;-0.99;85.55;99168.01;104238;1272;95247;-65
2023/04/03 06:08:03;;;;;;;26.00;10.10;;;;;;;-0.98;85.79;99170.23;104270;1282;95207;-65
2023/04/03 06:10:30;;;;;;;16.00;5.90;;;;;;;-1.03;85.31;99169.63;104130;1274;107305;-64
2023/04/03 06:12:57;;;;;;;12.90;5.00;;;;;;;-1.04;85.44;99172.94;104236;1272;96113;-65
2023/04/03 06:15:24;;;;;;;16.60;6.50;;;;;;;-0.98;85.83;99173.54;104175;1270;95324;-64
2023/04/03 06:17:51;;;;;;;14.50;5.50;;;;;;;-0.82;86.02;99173.98;104169;1267;95322;-66
2023/04/03 06:20:18;;;;;;;12.90;6.60;;;;;;;-0.73;85.45;99175.36;104177;1271;95315;-74
2023/04/03 06:22:45;;;;;;;10.60;6.20;;;;;;;-0.68;85.00;99176.38;104169;1288;95123;-65
2023/04/03 06:25:12;;;;;;;10.80;5.20;;;;;;;-0.66;84.71;99173.83;104232;1269;95342;-64
2023/04/03 06:27:40;;;;;;;13.00;4.80;;;;;;;-0.68;84.29;99177.77;104170;1282;96314;-66
2023/04/03 06:30:07;;;;;;;13.40;6.50;;;;;;;-0.65;84.94;99178.17;104963;1260;95603;-65
2023/04/03 06:32:34;;;;;;;10.20;5.00;;;;;;;-0.70;83.94;99178.25;104837;1269;95491;-67
2023/04/03 06:35:02;;;;;;;17.60;6.80;;;;;;;-0.69;84.21;99177.73;104740;1259;95271;-66
2023/04/03 06:37:30;;;;;;;20.20;8.30;;;;;;;-0.64;83.86;99187.25;104952;1259;96142;-67
2023/04/03 06:39:58;;;;;;;27.50;11.00;;;;;;;-0.60;83.97;99191.02;105020;1260;95202;-67
2023/04/03 06:42:25;;;;;;;15.30;6.20;;;;;;;-0.52;84.28;99195.52;105037;1257;95704;-66
2023/04/03 06:44:52;;;;;;;9.70;4.60;;;;;;;-0.52;83.34;99194.34;104983;1267;95174;-68
2023/04/03 06:47:19;;;;;;;23.50;9.80;;;;;;;-0.56;83.55;99201.09;104991;1259;95292;-65
2023/04/03 06:49:46;;;;;;;27.20;11.10;;;;;;;-0.50;83.94;99201.66;104940;1269;95205;-66
2023/04/03 06:52:13;;;;;;;22.30;11.00;;;;;;;-0.41;83.62;99202.25;104974;1260;95258;-68
2023/04/03 06:54:41;;;;;;;18.00;8.40;;;;;;;-0.46;82.17;99210.52;104924;1259;95167;-65
2023/04/03 06:57:08;;;;;;;13.60;5.60;;;;;;;-0.51;82.18;99210.09;105010;1259;95192;-68
2023/04/03 06:59:36;;;;;;;18.00;5.80;;;;;;;-0.52;82.82;99211.49;104935;1257;95196;-68
2023/04/03 07:02:04;;;;;;;19.80;7.50;;;;;;;-0.54;82.66;99210.20;105005;1266;95200;-68
2023/04/03 07:04:31;;;;;;;21.60;8.50;;;;;;;-0.60;82.17;99212.81;104959;1256;95863;-67
2023/04/03 07:06:58;;;;;;;16.60;5.60;;;;;;;-0.64;81.82;99214.63;105018;1260;95291;-76
2023/04/03 07:09:26;;;;;;;12.90;6.10;;;;;;;-0.67;82.16;99218.23;105040;1259;95313;-68
2023/04/03 07:11:53;;;;;;;14.00;6.00;;;;;;;-0.63;82.06;99219.46;104967;1260;96242;-69
2023/04/03 07:14:20;;;;;;;18.10;7.20;;;;;;;-0.50;82.83;99221.38;104972;1257;95263;-73
2023/04/03 07:16:48;;;;;;;10.10;4.70;;;;;;;-0.24;83.77;99220.17;105076;1260;95191;-67
2023/04/03 07:19:15;;;;;;;7.00;3.20;;;;;;;-0.02;81.50;99225.80;104926;1270;95199;-70
2023/04/03 07:21:43;;;;;;;9.80;3.80;;;;;;;0.19;82.07;99226.90;104949;1259;95272;-68
2023/04/03 07:24:11;;;;;;;15.40;5.50;;;;;;;0.60;81.43;99225.34;105003;1269;96126;-67
2023/04/03 07:26:42;;;;;;;8.50;3.90;;;;;;;0.78;79.10;99234.16;104919;1271;95186;-66
2023/04/03 07:29:10;;;;;;;8.70;3.50;;;;;;;0.81;77.67;99234.13;104961;1259;96403;-67
2023/04/03 07:31:41;;;;;;;8.10;3.90;;;;;;;0.82;78.16;99238.03;104950;1259;95199;-66
2023/04/03 07:34:08;;;;;;;3.50;2.30;;;;;;;0.90;77.28;99241.55;105046;1259;99089;-66
2023/04/03 07:36:36;;;;;;;4.50;3.10;;;;;;;0.95;76.42;99240.66;104665;1260;96082;-65
2023/04/03 07:39:03;;;;;;;6.70;3.40;;;;;;;0.95;75.58;99237.56;104786;1262;95695;-73
2023/04/03 07:41:30;;;;;;;5.40;2.90;;;;;;;1.12;76.08;99243.02;104801;1258;96113;-68
2023/04/03 07:43:58;;;;;;;5.00;3.20;;;;;;;1.22;74.55;99243.40;104820;1257;109556;-69
2023/04/03 07:46:25;;;;;;;10.70;4.90;;;;;;;1.17;73.56;99242.05;104942;1257;95213;-69
2023/04/03 07:48:53;;;;;;;13.10;5.50;;;;;;;1.09;74.43;99241.83;104638;1262;108123;-66
2023/04/03 07:51:24;;;;;;;7.10;3.80;;;;;;;1.36;74.08;99242.61;104836;1263;95329;-66
2023/04/03 07:53:51;;;;;;;12.40;4.70;;;;;;;1.37;73.04;99246.77;104727;1260;95823;-66
2023/04/03 07:56:18;;;;;;;8.60;3.30;;;;;;;1.63;74.24;99243.19;104946;1260;95192;-68
2023/04/03 07:58:46;;;;;;;5.30;2.90;;;;;;;2.01;73.61;99247.80;104884;1259;96215;-69
2023/04/03 08:01:13;;;;;;;9.90;3.20;;;;;;;2.38;72.50;99245.08;104979;1260;95192;-68
2023/04/03 08:03:40;;;;;;;8.60;3.90;;;;;;;2.64;70.47;99246.09;104990;1260;96113;-66
2023/04/03 08:06:09;;;;;;;7.70;3.60;;;;;;;2.64;67.62;99240.80;105023;1259;95191;-67
2023/04/03 08:08:42;;;;;;;15.90;7.40;;;;;;;2.59;66.71;99247.58;104894;1259;109547;-79
2023/04/03 08:11:10;;;;;;;12.50;5.40;;;;;;;2.54;65.63;99254.06;104913;1260;98147;-74
2023/04/03 08:13:38;;;;;;;18.70;4.70;;;;;;;2.47;65.50;99257.34;105020;1267;108684;-74
2023/04/03 08:16:17;;;;;;;5.50;2.70;;;;;;;2.47;64.39;99251.39;105027;1261;95211;-68
2023/04/03 08:18:44;;;;;;;7.50;3.00;;;;;;;2.54;63.28;99254.80;104799;1263;95373;-71
2023/04/03 08:21:12;;;;;;;4.20;2.60;;;;;;;2.71;63.70;99254.22;104972;1260;95281;-67
2023/04/03 08:23:43;;;;;;;5.30;3.00;;;;;;;2.80;64.52;99250.89;104967;1259;99277;-67
2023/04/03 08:26:16;;;;;;;3.90;2.10;;;;;;;3.00;62.97;99245.33;104829;1278;107572;-68
2023/04/03 08:28:43;;;;;;;5.20;2.40;;;;;;;3.09;60.75;99245.35;104983;1259;95201;-68
2023/04/03 08:31:15;;;;;;;12.10;3.30;;;;;;;3.22;60.47;99242.27;104924;1262;95767;-68
2023/04/03 08:33:42;;;;;;;12.90;4.00;;;;;;;3.22;59.11;99242.48;104984;1259;110094;-67
2023/04/03 08:36:30;;;;;;;8.80;3.90;;;;;;;3.32;57.54;99243.48;105033;1270;95246;-67
2023/04/03 08:38:57;;;;;;;5.20;2.20;;;;;;;3.08;56.60;99250.09;104745;1257;108419;-68
2023/04/03 08:41:34;;;;;;;3.80;2.00;;;;;;;2.84;56.39;99254.56;104926;1270;95217;-70
2023/04/03 08:44:13;;;;;;;4.50;2.20;;;;;;;2.54;55.47;99252.76;104979;1259;95237;-68
2023/04/03 08:46:57;;;;;;;2.00;1.20;;;;;;;2.34;56.12;99255.37;104978;1261;109526;-68
2023/04/03 08:49:46;;;;;;;11.10;3.90;;;;;;;2.28;57.28;99259.53;104770;1260;100001;-68
2023/04/03 08:52:37;;;;;;;3.70;1.80;;;;;;;2.17;55.71;99255.59;104963;1259;108501;-65
2023/04/03 08:55:15;;;;;;;4.80;2.70;;;;;;;2.02;55.67;99261.45;104806;1273;95247;-70
2023/04/03 08:57:45;;;;;;;9.60;3.40;;;;;;;2.00;56.74;99261.62;105017;1267;95285;-66
2023/04/03 09:00:15;;;;;;;7.70;3.50;;;;;;;2.27;57.52;99261.73;104949;1270;108062;-66
2023/04/03 09:02:49;;;;;;;5.20;2.10;;;;;;;2.39;54.66;99259.60;104973;1262;98193;-68
2023/04/03 09:05:19;;;;;;;9.20;3.50;;;;;;;2.84;55.82;99256.02;105016;1270;108627;-66
2023/04/03 09:08:06;;;;;;;7.20;2.80;;;;;;;3.33;53.93;99257.04;104987;1270;95201;-66
2023/04/03 09:10:38;;;;;;;7.30;3.30;;;;;;;3.63;53.66;99258.77;104821;1262;95227;-66
2023/04/03 09:13:08;;;;;;;4.10;1.60;;;;;;;3.63;50.88;99255.89;104754;1262;108547;-67
2023/04/03 09:15:35;;;;;;;9.20;4.00;;;;;;;3.84;52.22;99260.10;104911;1261;98938;-73
2023/04/03 09:18:12;;;;;;;4.00;2.30;;;;;;;4.32;51.54;99253.52;104783;1269;107604;-70
2023/04/03 09:20:42;;;;;;;5.70;2.60;;;;;;;4.71;49.39;99250.52;104956;1267;95811;-67
2023/04/03 09:23:27;;;;;;;11.00;4.50;;;;;;;4.66;47.81;99257.16;104921;1261;95205;-67
2023/04/03 09:26:05;;;;;;;12.80;3.20;;;;;;;4.84;48.75;99252.79;105044;1270;109077;-67
2023/04/03 09:28:38;;;;;;;2.60;1.30;;;;;;;4.96;47.23;99251.29;104956;1259;99462;-68
2023/04/03 09:31:19;;;;;;;12.90;5.70;;;;;;;4.85;47.24;99251.88;104930;1270;108540;-67
2023/04/03 09:33:52;;;;;;;13.70;5.60;;;;;;;5.04;46.04;99258.73;104898;1270;95204;-68
2023/04/03 09:36:43;;;;;;;4.10;2.50;;;;;;;5.00;45.30;99258.65;104918;1266;95201;-67
2023/04/03 09:39:21;;;;;;;27.50;10.00;;;;;;;5.14;46.78;99265.54;104711;1260;108180;-67
2023/04/03 09:42:02;;;;;;;30.60;10.80;;;;;;;5.32;46.16;99263.56;104886;1272;99226;-69
2023/04/03 09:44:38;;;;;;;14.80;6.70;;;;;;;5.71;45.21;99261.13;104733;1269;108422;-68
2023/04/03 09:47:25;;;;;;;17.20;7.40;;;;;;;6.00;44.86;99259.42;105013;1272;96598;-67
2023/04/03 09:50:14;;;;;;;19.20;8.40;;;;;;;5.65;44.25;99256.43;105012;1270;96570;-67
2023/04/03 09:52:43;;;;;;;8.70;4.00;;;;;;;5.41;45.12;99259.05;104891;1259;110658;-67
2023/04/03 09:55:16;;;;;;;6.20;3.50;;;;;;;5.60;45.40;99259.84;104885;1260;99094;-67
2023/04/03 09:57:48;;;;;;;6.40;2.40;;;;;;;5.81;44.62;99260.73;104937;1270;108624;-67
2023/04/03 10:00:38;;;;;;;5.00;2.60;;;;;;;6.25;44.96;99260.91;104929;1269;96638;-67
2023/04/03 10:03:25;;;;;;;3.20;1.90;;;;;;;6.06;43.64;99265.94;105027;1259;96541;-67
2023/04/03 10:05:54;;;;;;;9.20;3.60;;;;;;;5.76;43.13;99261.36;104973;1261;110871;-67
2023/04/03 10:08:26;;;;;;;5.10;3.20;;;;;;;5.87;44.85;99258.41;104748;1264;98965;-67
2023/04/03 10:11:13;;;;;;;7.70;3.40;;;;;;;6.21;43.64;99257.91;104959;1260;108630;-67
2023/04/03 10:14:02;;;;;;;7.80;2.70;;;;;;;5.58;41.98;99265.98;104926;1270;97954;-67
2023/04/03 10:16:49;;;;;;;3.60;1.50;;;;;;;5.61;42.50;99266.46;105010;1269;96457;-67
2023/04/03 10:19:30;;;;;;;7.60;3.30;;;;;;;5.37;41.56;99270.45;104987;1267;110881;-67
2023/04/03 10:22:03;;;;;;;8.70;4.10;;;;;;;4.92;41.97;99270.71;104954;1269;99080;-67
2023/04/03 10:24:52;;;;;;;6.50;3.50;;;;;;;5.34;43.18;99272.05;104851;1261;108577;-67
2023/04/03 10:27:31;;;;;;;7.80;3.80;;;;;;;5.93;41.25;99268.92;104737;1264;97267;-67
2023/04/03 10:30:32;;;;;;;4.90;2.20;;;;;;;6.31;41.64;99273.83;104582;1263;96648;-67
2023/04/03 10:33:23;;;;;;;4.70;2.90;;;;;;;6.67;39.31;99272.88;104787;1261;110836;-66
2023/04/03 10:36:01;;;;;;;2.70;1.50;;;;;;;6.08;39.58;99281.98;104591;1265;98616;-67
2023/04/03 10:38:50;;;;;;;4.00;2.60;;;;;;;5.75;41.06;99273.71;104665;1264;108148;-67
2023/04/03 10:41:21;;;;;;;6.40;2.70;;;;;;;5.92;41.31;99266.97;105003;1265;96581;-67
2023/04/03 10:43:52;;;;;;;4.90;2.60;;;;;;;5.92;41.45;99265.38;104830;1273;98188;-68
2023/04/03 10:46:35;;;;;;;4.40;1.60;;;;;;;5.28;39.58;99268.54;104873;1273;108528;-68
2023/04/03 10:49:23;;;;;;;3.70;2.20;;;;;;;5.29;37.83;99264.85;105005;1261;99093;-68
2023/04/03 10:52:22;;;;;;;3.40;1.30;;;;;;;5.44;38.19;99267.64;104939;1269;107735;-67
2023/04/03 10:54:59;;;;;;;1.70;1.30;;;;;;;5.57;38.12;99253.36;104948;1259;96632;-67
2023/04/03 10:57:28;;;;;;;4.40;2.00;;;;;;;6.09;38.73;99258.31;104789;1261;96721;-67
2023/04/03 11:00:09;;;;;;;3.60;2.40;;;;;;;6.23;36.66;99254.54;105030;1259;109684;-67
2023/04/03 11:02:45;;;;;;;2.90;2.10;;;;;;;6.15;36.01;99261.61;104830;1260;97800;-67
2023/04/03 11:05:30;;;;;;;3.60;1.40;;;;;;;6.20;35.79;99251.42;105011;1274;108737;-66
2023/04/03 11:08:04;;;;;;;3.90;2.40;;;;;;;6.28;37.11;99250.31;104983;1270;97448;-66
2023/04/03 11:10:40;;;;;;;4.00;1.90;;;;;;;6.72;36.66;99249.93;105010;1270;97342;-66
2023/04/03 11:13:17;;;;;;;5.00;2.40;;;;;;;6.73;36.10;99248.67;104805;1260;109899;-68
2023/04/03 11:15:47;;;;;;;5.90;3.20;;;;;;;6.24;36.94;99253.60;104818;1260;99392;-67
2023/04/03 11:18:21;;;;;;;5.40;3.50;;;;;;;6.29;37.51;99254.23;105028;1270;108709;-66
2023/04/03 11:21:19;;;;;;;6.30;4.20;;;;;;;6.57;37.36;99250.77;104635;1263;96715;-67
2023/04/03 11:23:49;;;;;;;3.60;1.90;;;;;;;6.78;38.25;99240.73;104860;1260;98332;-67
2023/04/03 11:26:21;;;;;;;5.50;3.20;;;;;;;6.74;37.66;99239.52;104665;1266;107866;-67
2023/04/03 11:29:06;;;;;;;8.30;2.40;;;;;;;6.20;37.53;99236.80;104892;1259;99333;-67
2023/04/03 11:32:00;;;;;;;4.80;2.40;;;;;;;6.16;37.64;99234.55;104736;1267;108034;-67
2023/04/03 11:34:40;;;;;;;7.60;3.50;;;;;;;6.00;37.30;99237.17;104704;1260;96802;-67
2023/04/03 11:37:32;;;;;;;7.90;4.00;;;;;;;6.21;38.61;99234.17;105014;1260;96632;-67
2023/04/03 11:40:26;;;;;;;13.00;5.20;;;;;;;6.27;38.13;99237.63;104736;1261;108868;-67
2023/04/03 11:42:59;;;;;;;2.90;1.60;;;;;;;6.33;37.24;99239.30;104766;1271;98768;-66
2023/04/03 11:45:38;;;;;;;2.70;1.50;;;;;;;6.28;35.94;99235.55;104893;1260;108063;-66
2023/04/03 11:48:30;;;;;;;4.00;2.30;;;;;;;6.08;36.27;99230.73;104906;1278;96647;-66
2023/04/03 11:51:20;;;;;;;5.20;2.30;;;;;;;5.95;37.60;99234.00;104954;1269;96577;-65
2023/04/03 11:53:48;;;;;;;4.50;2.30;;;;;;;6.64;37.46;99234.79;104879;1265;110859;-66
2023/04/03 11:56:25;;;;;;;4.00;2.60;;;;;;;6.95;37.14;99230.23;104770;1270;99138;-66
2023/04/03 11:59:14;;;;;;;6.10;2.90;;;;;;;6.80;36.69;99232.71;104992;1259;108636;-66
2023/04/03 12:01:58;;;;;;;5.40;3.30;;;;;;;6.63;37.38;99231.91;104886;1261;96638;-66
2023/04/03 12:04:27;;;;;;;3.40;1.80;;;;;;;6.15;39.01;99238.02;105018;1267;97544;-66
2023/04/03 12:07:01;;;;;;;8.60;3.90;;;;;;;5.60;39.83;99234.55;104883;1263;107922;-66
2023/04/03 12:09:54;;;;;;;5.00;2.90;;;;;;;5.31;39.54;99236.27;104980;1260;99135;-67
2023/04/03 12:12:38;;;;;;;6.70;3.50;;;;;;;5.24;39.08;99239.45;104655;1269;108124;-68
2023/04/03 12:15:19;;;;;;;5.00;2.00;;;;;;;5.92;39.99;99232.42;104835;1269;96632;-67
2023/04/03 12:17:47;;;;;;;4.20;2.20;;;;;;;6.77;36.36;99225.23;105057;1270;96565;-67
2023/04/03 12:20:48;;;;;;;4.10;2.30;;;;;;;6.58;34.11;99225.33;104654;1256;110016;-67
2023/04/03 12:23:26;;;;;;;3.00;1.40;;;;;;;6.55;35.19;99220.53;105051;1260;99235;-67
2023/04/03 12:26:03;;;;;;;2.80;1.80;;;;;;;6.62;34.60;99214.96;104888;1259;108533;-66
2023/04/03 12:28:39;;;;;;;7.60;3.10;;;;;;;6.07;36.52;99222.55;104994;1259;96543;-66
2023/04/03 12:31:10;;;;;;;4.40;2.80;;;;;;;5.98;37.30;99212.04;104867;1261;96536;-66
2023/04/03 12:34:01;;;;;;;5.60;3.20;;;;;;;6.34;38.27;99208.23;104858;1260;109998;-66
2023/04/03 12:36:49;;;;;;;5.80;3.00;;;;;;;6.70;37.24;99206.58;104872;1269;99113;-66
2023/04/03 12:39:26;;;;;;;4.00;2.20;;;;;;;6.41;38.48;99210.63;104985;1265;108663;-66
2023/04/03 12:41:56;;;;;;;4.10;1.50;;;;;;;5.92;38.10;99215.94;104737;1270;96645;-66
2023/04/03 12:44:39;;;;;;;8.40;4.50;;;;;;;5.59;38.80;99212.95;104824;1258;96575;-66
2023/04/03 12:47:22;;;;;;;4.70;2.00;;;;;;;5.51;39.26;99220.92;104681;1274;110568;-66
2023/04/03 12:49:51;;;;;;;4.80;2.60;;;;;;;5.61;38.42;99206.28;104664;1264;99373;-66
2023/04/03 12:52:30;;;;;;;4.00;2.40;;;;;;;5.89;37.90;99214.51;104911;1259;108203;-66
2023/04/03 12:55:03;;;;;;;3.80;2.20;;;;;;;6.28;36.28;99211.21;104942;1269;97230;-66
2023/04/03 12:57:32;;;;;;;3.30;1.90;;;;;;;6.31;36.38;99197.66;104885;1270;96543;-66
2023/04/03 13:00:00;;;;;;;3.00;1.90;;;;;;;6.59;37.04;99201.58;104980;1263;110911;-66
2023/04/03 13:02:35;;;;;;;3.80;2.10;;;;;;;6.83;36.40;99201.44;104838;1263;97807;-67
2023/04/03 13:05:13;;;;;;;3.60;2.30;;;;;;;7.08;37.73;99203.45;104791;1260;108839;-67
2023/04/03 13:07:43;;;;;;;4.80;2.80;;;;;;;7.13;37.14;99200.21;105019;1267;96667;-66
2023/04/03 13:10:14;;;;;;;7.50;3.50;;;;;;;6.80;37.55;99207.05;104835;1264;96693;-66
2023/04/03 13:12:51;;;;;;;7.20;2.70;;;;;;;6.57;37.55;99206.42;104702;1270;110847;-66
2023/04/03 13:15:29;;;;;;;4.90;2.30;;;;;;;6.16;37.86;99212.35;104954;1261;98976;-66
2023/04/03 13:17:57;;;;;;;4.70;2.30;;;;;;;6.02;37.75;99204.80;104718;1261;108186;-65
2023/04/03 13:20:32;;;;;;;5.10;2.50;;;;;;;6.29;37.60;99203.70;104878;1270;96638;-67
2023/04/03 13:23:08;;;;;;;4.10;1.90;;;;;;;6.43;36.31;99199.63;104908;1260;96585;-68
2023/04/03 13:25:41;;;;;;;3.80;2.40;;;;;;;6.26;35.77;99198.27;104942;1270;110601;-66
2023/04/03 13:28:30;;;;;;;3.00;2.00;;;;;;;6.00;36.95;99199.63;104987;1260;99168;-67
2023/04/03 13:31:17;;;;;;;6.20;3.50;;;;;;;5.83;38.15;99206.44;104930;1260;108716;-67
2023/04/03 13:33:54;;;;;;;3.80;1.80;;;;;;;5.68;38.18;99212.66;104955;1261;96549;-67
2023/04/03 13:36:34;;;;;;;3.70;2.50;;;;;;;5.63;39.27;99208.18;104926;1268;96548;-66
2023/04/03 13:39:11;;;;;;;6.20;3.30;;;;;;;6.07;39.36;99211.88;104934;1260;110841;-66
2023/04/03 13:41:40;;;;;;;5.40;2.80;;;;;;;6.48;38.99;99207.58;104799;1270;99327;-66
2023/04/03 13:44:22;;;;;;;3.30;2.10;;;;;;;6.60;37.31;99205.88;105215;1261;108983;-66
2023/04/03 13:47:15;;;;;;;5.30;2.60;;;;;;;6.50;36.85;99211.50;104725;1271;96746;-66
2023/04/03 13:49:57;;;;;;;5.60;2.20;;;;;;;6.25;37.77;99218.34;104627;1267;98301;-66
2023/04/03 13:52:35;;;;;;;5.10;3.00;;;;;;;6.17;38.94;99211.54;104578;1264;110554;-66
2023/04/03 13:55:16;;;;;;;5.20;3.10;;;;;;;6.27;39.03;99200.48;104776;1270;98735;-66
2023/04/03 13:57:59;;;;;;;5.10;2.10;;;;;;;6.19;37.93;99208.43;104935;1257;108621;-66
2023/04/03 14:00:53;;;;;;;14.90;5.60;;;;;;;5.80;37.49;99203.98;104967;1257;96548;-66
2023/04/03 14:03:40;;;;;;;14.90;4.90;;;;;;;5.51;38.07;99205.54;104860;1258;97762;-66
2023/04/03 14:06:12;;;;;;;4.00;2.40;;;;;;;5.41;38.66;99200.83;104992;1260;110702;-66
2023/04/03 14:08:40;;;;;;;;;;;;;;;5.24;38.92;99195.54;104904;1257;98442;-67
2023/04/03 14:11:18;;;;;;;13.30;5.10;;;;;;;5.23;39.41;99190.27;104716;1263;107799;-66
2023/04/03 14:13:46;;;;;;;6.20;2.20;;;;;;;5.19;39.05;99194.10;104907;1260;96530;-67
2023/04/03 14:16:16;;;;;;;4.30;1.90;;;;;;;5.00;38.37;99198.78;104947;1261;96487;-66
2023/04/03 14:18:48;;;;;;;15.30;4.30;;;;;;;4.70;38.42;99196.10;104870;1271;110973;-66
2023/04/03 14:21:17;;;;;;;21.80;5.90;;;;;;;4.55;39.28;99199.69;104800;1267;99020;-66
2023/04/03 14:23:45;;;;;;;14.20;4.10;;;;;;;4.55;39.15;99194.86;104650;1269;107598;-66
2023/04/03 14:26:20;;;;;;;9.50;3.20;;;;;;;4.65;39.93;99197.48;104943;1263;96567;-66
2023/04/03 14:28:53;;;;;;;20.20;6.50;;;;;;;4.85;39.45;99194.18;104842;1261;96605;-66
2023/04/03 14:31:24;;;;;;;4.60;2.50;;;;;;;4.78;39.22;99194.38;104826;1260;110951;-66
2023/04/03 14:33:52;;;;;;;11.60;4.10;;;;;;;4.49;40.17;99198.28;104850;1261;99215;-66
2023/04/03 14:36:22;;;;;;;3.10;1.60;;;;;;;4.31;40.30;99201.52;104745;1264;108635;-66
2023/04/03 14:38:50;;;;;;;14.30;5.10;;;;;;;4.16;40.92;99205.34;105066;1258;96630;-66
2023/04/03 14:41:21;;;;;;;21.60;7.50;;;;;;;4.07;41.19;99206.14;104918;1260;96649;-67
2023/04/03 14:43:50;;;;;;;21.20;7.60;;;;;;;4.05;41.72;99206.17;104856;1264;110846;-68
2023/04/03 14:46:41;;;;;;;19.40;4.90;;;;;;;3.99;42.06;99205.80;104893;1270;98950;-66
2023/04/03 14:49:27;;;;;;;18.10;6.90;;;;;;;3.99;41.98;99212.20;104953;1261;108491;-66
2023/04/03 14:51:59;;;;;;;32.60;10.90;;;;;;;4.10;42.25;99210.39;104757;1269;96791;-68
2023/04/03 14:54:28;;;;;;;26.30;10.30;;;;;;;4.15;41.97;99216.09;104800;1262;98371;-68
2023/04/03 14:56:59;;;;;;;19.20;7.40;;;;;;;4.11;41.64;99217.51;104996;1259;110880;-66
2023/04/03 14:59:28;;;;;;;18.50;7.20;;;;;;;3.98;42.16;99220.32;104757;1264;98448;-66
2023/04/03 15:01:55;;;;;;;15.90;5.80;;;;;;;3.83;41.84;99218.39;105021;1257;106827;-65
2023/04/03 15:04:24;;;;;;;20.60;8.50;;;;;;;3.77;41.58;99216.19;104992;1260;96621;-66
2023/04/03 15:06:53;;;;;;;21.00;9.10;;;;;;;3.73;41.34;99213.92;104927;1260;96544;-66
2023/04/03 15:09:24;;;;;;;13.20;5.50;;;;;;;3.71;41.44;99213.00;104916;1266;110118;-65
2023/04/03 15:11:54;;;;;;;35.10;13.90;;;;;;;3.70;41.38;99215.36;104808;1263;98775;-66
2023/04/03 15:14:22;;;;;;;24.30;8.40;;;;;;;3.69;41.00;99214.17;105002;1257;108038;-65
2023/04/03 15:17:12;;;;;;;27.60;10.40;;;;;;;3.75;42.01;99213.08;104708;1271;97504;-65
2023/04/03 15:19:39;;;;;;;14.00;5.30;;;;;;;3.73;42.41;99220.77;105017;1257;96478;-65
2023/04/03 15:22:13;;;;;;;13.40;5.30;;;;;;;3.64;42.40;99217.02;104895;1262;110261;-66
2023/04/03 15:24:41;;;;;;;10.00;3.90;;;;;;;3.60;42.62;99217.80;104946;1266;99280;-65
2023/04/03 15:27:11;;;;;;;5.20;2.00;;;;;;;3.57;42.75;99220.70;104940;1270;107542;-66
2023/04/03 15:29:41;;;;;;;6.50;3.00;;;;;;;3.47;41.48;99212.77;104992;1264;96618;-67
2023/04/03 15:32:10;;;;;;;6.50;2.50;;;;;;;3.44;41.79;99211.55;104961;1270;96546;-66
2023/04/03 15:34:38;;;;;;;6.70;2.40;;;;;;;3.48;41.61;99214.20;105733;1257;110898;-65
2023/04/03 15:37:06;;;;;;;5.70;2.80;;;;;;;3.51;42.65;99216.89;104996;1261;99158;-67
2023/04/03 15:39:33;;;;;;;4.70;2.50;;;;;;;3.43;42.93;99218.26;104947;1261;96580;-65
2023/04/03 15:42:05;;;;;;;6.30;2.90;;;;;;;3.36;43.22;99221.36;104930;1270;96555;-65
2023/04/03 15:44:36;;;;;;;5.90;2.90;;;;;;;3.30;43.17;99224.54;104863;1260;96557;-66
2023/04/03 15:47:03;;;;;;;2.60;1.90;;;;;;;3.26;43.07;99215.43;104949;1270;110574;-65
2023/04/03 15:49:33;;;;;;;8.30;3.40;;;;;;;3.28;43.57;99220.94;104965;1271;96516;-66
2023/04/03 15:52:01;;;;;;;13.90;3.80;;;;;;;3.26;43.37;99221.88;104954;1261;108801;-66
2023/04/03 15:54:29;;;;;;;4.30;2.60;;;;;;;3.19;44.00;99226.80;104952;1260;97456;-66
2023/04/03 15:56:56;;;;;;;7.10;3.20;;;;;;;3.05;44.51;99233.42;104863;1257;96760;-66
2023/04/03 15:59:24;;;;;;;5.90;2.40;;;;;;;2.93;44.35;99234.77;104827;1270;110895;-66
2023/04/03 16:01:52;;;;;;;15.90;6.10;;;;;;;2.85;44.13;99230.98;104971;1260;99289;-70
2023/04/03 16:04:20;;;;;;;9.70;3.90;;;;;;;2.82;44.43;99233.48;104662;1273;109749;-68
2023/04/03 16:06:49;;;;;;;8.90;4.60;;;;;;;2.78;44.67;99236.35;105048;1270;96558;-65
2023/04/03 16:09:16;;;;;;;5.40;3.20;;;;;;;2.67;44.39;99234.45;105041;1261;96583;-66
2023/04/03 16:11:44;;;;;;;9.50;5.00;;;;;;;2.61;45.40;99238.73;104765;1264;97353;-65
2023/04/03 16:14:12;;;;;;;8.30;3.10;;;;;;;2.58;46.15;99246.21;105010;1271;96561;-66
2023/04/03 16:16:39;;;;;;;13.40;6.40;;;;;;;2.55;47.40;99248.76;104719;1259;108432;-66
2023/04/03 16:19:08;;;;;;;16.20;5.70;;;;;;;2.54;47.59;99247.51;104931;1261;96709;-65
2023/04/03 16:21:35;;;;;;;11.90;5.90;;;;;;;2.53;47.66;99240.95;104943;1271;96584;-65
2023/04/03 16:24:03;;;;;;;12.40;7.30;;;;;;;2.54;47.89;99242.41;104978;1257;96573;-65
2023/04/03 16:26:30;;;;;;;16.10;9.40;;;;;;;2.50;46.90;99237.17;105038;1260;99136;-66
2023/04/03 16:28:57;;;;;;;11.50;5.80;;;;;;;2.50;46.72;99240.84;105035;1261;96524;-66
2023/04/03 16:31:26;;;;;;;18.70;7.50;;;;;;;2.48;46.74;99245.04;104837;1279;96667;-67
2023/04/03 16:33:54;;;;;;;10.50;4.50;;;;;;;2.48;46.76;99251.20;104718;1260;97077;-65
2023/04/03 16:36:22;;;;;;;36.40;14.00;;;;;;;2.44;47.17;99256.21;104876;1257;110967;-67
2023/04/03 16:38:49;;;;;;;55.70;20.20;;;;;;;2.37;48.43;99255.29;104763;1270;96571;-66
2023/04/03 16:41:16;;;;;;;51.30;17.80;;;;;;;2.25;48.38;99254.61;104795;1260;96645;-65
2023/04/03 16:43:43;;;;;;;11.00;6.50;;;;;;;2.19;48.71;99261.03;104871;1268;97851;-65
2023/04/03 16:46:10;;;;;;;25.30;12.20;;;;;;;2.16;49.32;99260.33;104847;1267;97055;-64
2023/04/03 16:48:38;;;;;;;8.60;4.70;;;;;;;2.12;47.71;99251.78;104977;1270;96639;-65
2023/04/03 16:51:05;;;;;;;25.80;11.30;;;;;;;2.12;47.74;99250.91;104980;1266;96562;-64
2023/04/03 16:53:32;;;;;;;54.20;20.60;;;;;;;2.15;47.45;99253.89;105017;1261;96555;-64
2023/04/03 16:55:59;;;;;;;30.70;12.20;;;;;;;2.13;47.19;99252.71;104948;1261;97448;-66
2023/04/03 16:58:28;;;;;;;32.70;12.90;;;;;;;2.10;47.52;99252.72;105037;1261;96583;-65
2023/04/03 17:00:55;;;;;;;108.10;33.70;;;;;;;2.06;48.10;99256.11;104931;1272;96648;-64
2023/04/03 17:03:25;;;;;;;53.00;18.90;;;;;;;2.00;48.43;99256.91;104925;1261;97514;-65
2023/04/03 17:05:53;;;;;;;26.60;11.60;;;;;;;1.94;49.26;99259.51;104957;1262;108544;-66
2023/04/03 17:08:20;;;;;;;34.10;13.50;;;;;;;1.86;49.28;99263.04;104939;1262;97230;-65
2023/04/03 17:10:50;;;;;;;25.70;10.40;;;;;;;1.82;49.58;99262.84;105031;1260;97852;-66
2023/04/03 17:13:17;;;;;;;37.30;13.30;;;;;;;1.80;49.10;99258.93;104680;1270;110154;-66
2023/04/03 17:15:44;;;;;;;44.30;16.40;;;;;;;1.81;48.78;99260.61;104890;1270;96563;-65
2023/04/03 17:18:11;;;;;;;24.50;8.50;;;;;;;1.82;48.56;99263.24;104871;1261;96584;-64
2023/04/03 17:20:39;;;;;;;54.10;17.20;;;;;;;1.83;48.60;99267.89;104668;1260;97999;-66
2023/04/03 17:23:07;;;;;;;22.50;10.20;;;;;;;1.82;48.78;99269.98;104919;1256;97883;-70
2023/04/03 17:25:35;;;;;;;63.80;22.70;;;;;;;1.80;48.92;99278.17;104566;1264;110456;-69